DLH72D LOWS-EDDH
Flight info
| Callsign | DLH72D |
|---|---|
| Flight time | 1h 7m |
| Altitude | 34000 |
| Route | INROM2A INROM DCT SIMBA Y700 NENUM DCT EPTEU DCT RUDNO M736 AKOSI/N0440F380 DCT ALOSO DCT KENIG DCT ABGUS DCT DIRBO/N0385F230 T902 RARUP RARUP3P |
| Aircraft | A319/M-SDE3FGHIRWY/LB1 |
Departure
| Time | 2026-05-04 11:57 |
|---|---|
| Airport | Salzburg Airport (LOWS) |
Arrival
| Time | 2026-05-04 13:04 |
|---|---|
| Airport | Hamburg Helmut Schmidt Airport (EDDH) |
| Time | Latitude | Longitude | Altitude | Speed | Heading |
|---|---|---|---|---|---|
| 2026-05-04 11:27 | 47.79199 | 12.99887 | 1420 ft | 0 kts | 282° |
| 2026-05-04 11:45 | 47.79197 | 12.99903 | 1420 ft | 2 kts | 281° |
| 2026-05-04 11:46 | 47.79195 | 12.99927 | 1420 ft | 2 kts | 266° |
| 2026-05-04 11:46 | 47.79197 | 12.99951 | 1420 ft | 2 kts | 245° |
| 2026-05-04 11:46 | 47.79205 | 12.99969 | 1420 ft | 2 kts | 216° |
| 2026-05-04 11:46 | 47.79216 | 12.99979 | 1421 ft | 2 kts | 192° |
| 2026-05-04 11:47 | 47.79230 | 12.99982 | 1420 ft | 2 kts | 172° |
| 2026-05-04 11:47 | 47.79238 | 12.99980 | 1420 ft | 2 kts | 165° |
| 2026-05-04 11:47 | 47.79227 | 12.99985 | 1422 ft | 2 kts | 159° |
| 2026-05-04 11:47 | 47.79219 | 12.99990 | 1424 ft | 0 kts | 158° |
| 2026-05-04 11:50 | 47.79208 | 12.99997 | 1423 ft | 4 kts | 158° |
| 2026-05-04 11:50 | 47.79173 | 13.00018 | 1420 ft | 7 kts | 158° |
| 2026-05-04 11:51 | 47.79123 | 13.00050 | 1420 ft | 8 kts | 156° |
| 2026-05-04 11:51 | 47.79068 | 13.00085 | 1420 ft | 9 kts | 157° |
| 2026-05-04 11:51 | 47.79009 | 13.00122 | 1420 ft | 10 kts | 157° |
| 2026-05-04 11:51 | 47.78960 | 13.00184 | 1420 ft | 10 kts | 110° |
| 2026-05-04 11:52 | 47.78954 | 13.00287 | 1420 ft | 10 kts | 92° |
| 2026-05-04 11:52 | 47.78927 | 13.00381 | 1420 ft | 11 kts | 148° |
| 2026-05-04 11:52 | 47.78857 | 13.00427 | 1420 ft | 11 kts | 156° |
| 2026-05-04 11:52 | 47.78784 | 13.00474 | 1420 ft | 12 kts | 156° |
| 2026-05-04 11:53 | 47.78708 | 13.00522 | 1420 ft | 12 kts | 157° |
| 2026-05-04 11:53 | 47.78619 | 13.00579 | 1420 ft | 15 kts | 156° |
| 2026-05-04 11:53 | 47.78523 | 13.00639 | 1420 ft | 15 kts | 158° |
| 2026-05-04 11:53 | 47.78425 | 13.00701 | 1421 ft | 15 kts | 156° |
| 2026-05-04 11:55 | 47.78276 | 13.01060 | 1421 ft | 0 kts | 337° |
| 2026-05-04 11:56 | 47.78281 | 13.01057 | 1420 ft | 8 kts | 337° |
| 2026-05-04 11:56 | 47.78588 | 13.00864 | 1420 ft | 85 kts | 338° |
| 2026-05-04 11:56 | 47.79343 | 13.00394 | 1422 ft | 146 kts | 337° |
| 2026-05-04 11:56 | 47.80303 | 12.99774 | 2007 ft | 145 kts | 337° |
| 2026-05-04 11:57 | 47.81235 | 12.99175 | 2599 ft | 148 kts | 339° |
| 2026-05-04 11:57 | 47.82294 | 12.98895 | 3022 ft | 164 kts | 5° |
| 2026-05-04 11:57 | 47.83431 | 12.99398 | 3554 ft | 178 kts | 30° |
| 2026-05-04 11:57 | 47.84485 | 13.00454 | 4187 ft | 186 kts | 38° |
| 2026-05-04 11:58 | 47.85573 | 13.01669 | 4685 ft | 205 kts | 39° |
| 2026-05-04 11:58 | 47.86749 | 13.03049 | 5178 ft | 227 kts | 39° |
| 2026-05-04 11:58 | 47.88085 | 13.04601 | 5714 ft | 252 kts | 39° |
| 2026-05-04 11:58 | 47.89549 | 13.06264 | 6300 ft | 275 kts | 38° |
| 2026-05-04 11:59 | 47.91116 | 13.08007 | 7177 ft | 285 kts | 38° |
| 2026-05-04 11:59 | 47.92731 | 13.09779 | 8089 ft | 291 kts | 37° |
| 2026-05-04 11:59 | 47.94382 | 13.11581 | 9063 ft | 297 kts | 37° |
| 2026-05-04 11:59 | 47.96065 | 13.13411 | 10047 ft | 301 kts | 36° |
| 2026-05-04 12:00 | 47.97875 | 13.15110 | 10505 ft | 323 kts | 22° |
| 2026-05-04 12:00 | 48.00138 | 13.15740 | 10966 ft | 339 kts | 355° |
| 2026-05-04 12:00 | 48.02459 | 13.15057 | 11726 ft | 344 kts | 343° |
| 2026-05-04 12:00 | 48.04795 | 13.14141 | 12564 ft | 348 kts | 342° |
| 2026-05-04 12:01 | 48.07161 | 13.13211 | 13411 ft | 353 kts | 342° |
| 2026-05-04 12:01 | 48.09553 | 13.12269 | 14182 ft | 357 kts | 342° |
| 2026-05-04 12:02 | 48.24463 | 13.06422 | 18529 ft | 380 kts | 343° |
| 2026-05-04 12:03 | 48.27071 | 13.05398 | 19153 ft | 383 kts | 343° |
| 2026-05-04 12:03 | 48.29662 | 13.04375 | 19759 ft | 387 kts | 343° |
| 2026-05-04 12:03 | 48.31399 | 13.03688 | 20178 ft | 389 kts | 343° |
| 2026-05-04 12:03 | 48.34036 | 13.02646 | 20809 ft | 393 kts | 343° |
| 2026-05-04 12:04 | 48.36686 | 13.01600 | 21437 ft | 396 kts | 343° |
| 2026-05-04 12:04 | 48.39365 | 13.00540 | 22060 ft | 399 kts | 343° |
| 2026-05-04 12:04 | 48.42067 | 12.99468 | 22686 ft | 403 kts | 343° |
| 2026-05-04 12:04 | 48.44819 | 12.98372 | 23286 ft | 406 kts | 343° |
| 2026-05-04 12:05 | 48.47530 | 12.97292 | 23816 ft | 409 kts | 343° |
| 2026-05-04 12:05 | 48.50334 | 12.96180 | 24309 ft | 412 kts | 343° |
| 2026-05-04 12:05 | 48.53085 | 12.95093 | 24805 ft | 414 kts | 344° |
| 2026-05-04 12:05 | 48.55931 | 12.94317 | 25287 ft | 418 kts | 350° |
| 2026-05-04 12:06 | 48.58821 | 12.93685 | 25764 ft | 420 kts | 349° |
| 2026-05-04 12:06 | 48.61761 | 12.93047 | 26241 ft | 422 kts | 349° |
| 2026-05-04 12:06 | 48.64642 | 12.92426 | 26711 ft | 425 kts | 349° |
| 2026-05-04 12:06 | 48.67585 | 12.91792 | 27175 ft | 427 kts | 349° |
| 2026-05-04 12:07 | 48.70529 | 12.91151 | 27638 ft | 429 kts | 349° |
| 2026-05-04 12:07 | 48.73495 | 12.90499 | 28098 ft | 431 kts | 349° |
| 2026-05-04 12:07 | 48.76478 | 12.89843 | 28561 ft | 434 kts | 349° |
| 2026-05-04 12:07 | 48.79472 | 12.89184 | 29001 ft | 436 kts | 349° |
| 2026-05-04 12:08 | 48.82527 | 12.88511 | 29451 ft | 439 kts | 349° |
| 2026-05-04 12:08 | 48.85594 | 12.87832 | 29883 ft | 441 kts | 349° |
| 2026-05-04 12:08 | 48.88603 | 12.87167 | 30256 ft | 443 kts | 349° |
| 2026-05-04 12:08 | 48.91710 | 12.86482 | 30610 ft | 446 kts | 349° |
| 2026-05-04 12:09 | 48.94789 | 12.85804 | 30952 ft | 448 kts | 349° |
| 2026-05-04 12:09 | 48.97880 | 12.85120 | 31287 ft | 450 kts | 348° |
| 2026-05-04 12:09 | 49.00991 | 12.84430 | 31627 ft | 452 kts | 348° |
| 2026-05-04 12:09 | 49.04107 | 12.83737 | 32018 ft | 452 kts | 348° |
| 2026-05-04 12:10 | 49.07221 | 12.83048 | 32489 ft | 451 kts | 348° |
| 2026-05-04 12:10 | 49.10323 | 12.82352 | 32958 ft | 449 kts | 347° |
| 2026-05-04 12:10 | 49.13336 | 12.81185 | 33429 ft | 443 kts | 337° |
| 2026-05-04 12:10 | 49.16143 | 12.79318 | 33867 ft | 438 kts | 328° |
| 2026-05-04 12:11 | 49.18702 | 12.76833 | 33987 ft | 430 kts | 319° |
| 2026-05-04 12:11 | 49.20904 | 12.73867 | 33999 ft | 416 kts | 311° |
| 2026-05-04 12:11 | 49.24946 | 12.67604 | 34003 ft | 411 kts | 311° |
| 2026-05-04 12:12 | 49.28957 | 12.61357 | 34008 ft | 411 kts | 311° |
| 2026-05-04 12:12 | 49.32962 | 12.55114 | 34002 ft | 411 kts | 311° |
| 2026-05-04 12:14 | 49.51016 | 12.32931 | 34020 ft | 414 kts | 317° |
| 2026-05-04 12:15 | 49.55533 | 12.27404 | 34032 ft | 414 kts | 317° |
| 2026-05-04 12:15 | 49.60076 | 12.21824 | 34052 ft | 414 kts | 317° |
| 2026-05-04 12:16 | 49.64554 | 12.16301 | 34065 ft | 414 kts | 317° |
| 2026-05-04 12:16 | 49.69147 | 12.10797 | 34071 ft | 417 kts | 323° |
| 2026-05-04 12:17 | 49.74527 | 12.07198 | 34076 ft | 428 kts | 341° |
| 2026-05-04 12:17 | 49.80367 | 12.05005 | 34065 ft | 428 kts | 342° |
| 2026-05-04 12:18 | 49.86168 | 12.02806 | 34049 ft | 429 kts | 341° |
| 2026-05-04 12:18 | 49.91965 | 12.00599 | 34035 ft | 429 kts | 341° |
| 2026-05-04 12:19 | 49.97767 | 11.98396 | 34020 ft | 429 kts | 341° |
| 2026-05-04 12:19 | 50.03568 | 11.96175 | 34009 ft | 429 kts | 341° |
| 2026-05-04 12:20 | 50.09380 | 11.93960 | 34013 ft | 429 kts | 341° |
| 2026-05-04 12:20 | 50.15225 | 11.91731 | 34016 ft | 429 kts | 341° |
| 2026-05-04 12:21 | 50.21027 | 11.89499 | 34022 ft | 430 kts | 341° |
| 2026-05-04 12:21 | 50.26837 | 11.87259 | 34021 ft | 430 kts | 341° |
| 2026-05-04 12:22 | 50.32645 | 11.85017 | 34027 ft | 430 kts | 341° |
| 2026-05-04 12:22 | 50.38499 | 11.82753 | 34021 ft | 430 kts | 341° |
| 2026-05-04 12:23 | 50.43340 | 11.80877 | 34017 ft | 431 kts | 341° |
| 2026-05-04 12:23 | 50.49204 | 11.78605 | 34008 ft | 431 kts | 341° |
| 2026-05-04 12:24 | 50.55034 | 11.76329 | 34008 ft | 431 kts | 341° |
| 2026-05-04 12:24 | 50.60896 | 11.74032 | 34000 ft | 432 kts | 341° |
| 2026-05-04 12:25 | 50.66734 | 11.71748 | 34000 ft | 432 kts | 341° |
| 2026-05-04 12:25 | 50.72565 | 11.69420 | 34000 ft | 431 kts | 340° |
| 2026-05-04 12:26 | 50.78312 | 11.66769 | 33998 ft | 430 kts | 338° |
| 2026-05-04 12:26 | 50.84062 | 11.63932 | 34002 ft | 429 kts | 337° |
| 2026-05-04 12:27 | 50.89785 | 11.61158 | 34000 ft | 430 kts | 338° |
| 2026-05-04 12:27 | 50.95606 | 11.58414 | 34004 ft | 430 kts | 338° |
| 2026-05-04 12:28 | 51.01380 | 11.55691 | 33993 ft | 430 kts | 338° |
| 2026-05-04 12:28 | 51.07120 | 11.52964 | 33996 ft | 430 kts | 338° |
| 2026-05-04 12:29 | 51.12883 | 11.50207 | 34000 ft | 429 kts | 338° |
| 2026-05-04 12:29 | 51.18642 | 11.47429 | 33997 ft | 429 kts | 338° |
| 2026-05-04 12:30 | 51.24411 | 11.44665 | 33987 ft | 429 kts | 338° |
| 2026-05-04 12:30 | 51.30133 | 11.41922 | 33987 ft | 429 kts | 338° |
| 2026-05-04 12:31 | 51.35854 | 11.39147 | 33991 ft | 429 kts | 337° |
| 2026-05-04 12:31 | 51.41621 | 11.36343 | 33988 ft | 429 kts | 337° |
| 2026-05-04 12:32 | 51.50242 | 11.32147 | 33988 ft | 429 kts | 337° |
| 2026-05-04 12:33 | 51.55923 | 11.29377 | 33982 ft | 429 kts | 337° |
| 2026-05-04 12:33 | 51.61649 | 11.26479 | 33986 ft | 426 kts | 332° |
| 2026-05-04 12:34 | 51.66893 | 11.22257 | 33989 ft | 420 kts | 326° |
| 2026-05-04 12:34 | 51.72071 | 11.17852 | 33992 ft | 420 kts | 326° |
| 2026-05-04 12:35 | 51.77256 | 11.13447 | 33996 ft | 420 kts | 326° |
| 2026-05-04 12:35 | 51.82427 | 11.09021 | 33997 ft | 420 kts | 326° |
| 2026-05-04 12:36 | 51.87846 | 11.05314 | 33988 ft | 430 kts | 340° |
| 2026-05-04 12:36 | 51.92844 | 11.04049 | 33984 ft | 435 kts | 347° |
| 2026-05-04 12:37 | 51.98892 | 11.02768 | 33980 ft | 435 kts | 346° |
| 2026-05-04 12:37 | 52.04905 | 11.01471 | 33970 ft | 435 kts | 346° |
| 2026-05-04 12:37 | 52.07926 | 11.00818 | 33612 ft | 436 kts | 346° |
| 2026-05-04 12:38 | 52.10939 | 11.00177 | 33191 ft | 436 kts | 346° |
| 2026-05-04 12:38 | 52.13951 | 10.99538 | 32787 ft | 437 kts | 346° |
| 2026-05-04 12:38 | 52.16978 | 10.98892 | 32396 ft | 437 kts | 346° |
| 2026-05-04 12:38 | 52.19984 | 10.98242 | 32007 ft | 435 kts | 346° |
| 2026-05-04 12:39 | 52.22978 | 10.97593 | 31622 ft | 433 kts | 346° |
| 2026-05-04 12:39 | 52.25996 | 10.96940 | 31233 ft | 431 kts | 346° |
| 2026-05-04 12:39 | 52.28925 | 10.96308 | 30867 ft | 428 kts | 346° |
| 2026-05-04 12:39 | 52.31879 | 10.95674 | 30496 ft | 426 kts | 346° |
| 2026-05-04 12:40 | 52.34820 | 10.95040 | 30131 ft | 424 kts | 346° |
| 2026-05-04 12:40 | 52.37785 | 10.94397 | 29717 ft | 422 kts | 346° |
| 2026-05-04 12:40 | 52.40682 | 10.93768 | 29293 ft | 420 kts | 346° |
| 2026-05-04 12:40 | 52.43572 | 10.93142 | 28873 ft | 417 kts | 346° |
| 2026-05-04 12:41 | 52.46440 | 10.92517 | 28462 ft | 414 kts | 346° |
| 2026-05-04 12:41 | 52.49284 | 10.91900 | 28057 ft | 411 kts | 346° |
| 2026-05-04 12:41 | 52.52122 | 10.91284 | 27642 ft | 409 kts | 346° |
| 2026-05-04 12:41 | 52.54968 | 10.90658 | 27253 ft | 406 kts | 346° |
| 2026-05-04 12:42 | 52.57724 | 10.90047 | 26873 ft | 403 kts | 346° |
| 2026-05-04 12:42 | 52.60494 | 10.89435 | 26493 ft | 401 kts | 346° |
| 2026-05-04 12:42 | 52.63250 | 10.88828 | 26115 ft | 398 kts | 346° |
| 2026-05-04 12:42 | 52.66030 | 10.88220 | 25736 ft | 396 kts | 346° |
| 2026-05-04 12:43 | 52.68755 | 10.87624 | 25367 ft | 394 kts | 346° |
| 2026-05-04 12:43 | 52.71461 | 10.87028 | 25002 ft | 391 kts | 346° |
| 2026-05-04 12:43 | 52.74198 | 10.86424 | 24641 ft | 389 kts | 346° |
| 2026-05-04 12:43 | 52.76872 | 10.85834 | 24294 ft | 387 kts | 346° |
| 2026-05-04 12:44 | 52.79534 | 10.85244 | 23947 ft | 385 kts | 346° |
| 2026-05-04 12:44 | 52.82223 | 10.84649 | 23585 ft | 383 kts | 346° |
| 2026-05-04 12:44 | 52.84858 | 10.84071 | 23152 ft | 381 kts | 346° |
| 2026-05-04 12:44 | 52.87490 | 10.83519 | 22676 ft | 379 kts | 347° |
| 2026-05-04 12:45 | 52.90101 | 10.82990 | 22231 ft | 377 kts | 347° |
| 2026-05-04 12:45 | 52.92666 | 10.82482 | 21788 ft | 375 kts | 347° |
| 2026-05-04 12:45 | 52.95247 | 10.81975 | 21349 ft | 373 kts | 347° |
| 2026-05-04 12:45 | 52.97851 | 10.81453 | 20903 ft | 371 kts | 347° |
| 2026-05-04 12:46 | 53.00400 | 10.80934 | 20482 ft | 368 kts | 347° |
| 2026-05-04 12:46 | 53.02979 | 10.80405 | 20048 ft | 366 kts | 347° |
| 2026-05-04 12:46 | 53.05471 | 10.79898 | 19647 ft | 364 kts | 347° |
| 2026-05-04 12:46 | 53.08025 | 10.79377 | 19223 ft | 362 kts | 347° |
| 2026-05-04 12:47 | 53.10497 | 10.78867 | 18823 ft | 361 kts | 347° |
| 2026-05-04 12:47 | 53.12977 | 10.78355 | 18425 ft | 359 kts | 347° |
| 2026-05-04 12:47 | 53.15446 | 10.77842 | 17994 ft | 357 kts | 347° |
| 2026-05-04 12:47 | 53.17916 | 10.77330 | 17538 ft | 356 kts | 348° |
| 2026-05-04 12:48 | 53.20437 | 10.76810 | 17076 ft | 354 kts | 348° |
| 2026-05-04 12:48 | 53.22881 | 10.76308 | 16633 ft | 352 kts | 348° |
| 2026-05-04 12:48 | 53.25305 | 10.75810 | 16219 ft | 350 kts | 348° |
| 2026-05-04 12:48 | 53.27712 | 10.75317 | 15839 ft | 347 kts | 348° |
| 2026-05-04 12:49 | 53.30092 | 10.74827 | 15466 ft | 344 kts | 348° |
| 2026-05-04 12:49 | 53.32453 | 10.74339 | 15097 ft | 340 kts | 348° |
| 2026-05-04 12:49 | 53.34812 | 10.73850 | 14731 ft | 337 kts | 348° |
| 2026-05-04 12:49 | 53.37129 | 10.73372 | 14369 ft | 334 kts | 348° |
| 2026-05-04 12:50 | 53.39469 | 10.72896 | 14010 ft | 332 kts | 348° |
| 2026-05-04 12:50 | 53.41782 | 10.72433 | 13638 ft | 329 kts | 348° |
| 2026-05-04 12:50 | 53.44049 | 10.71971 | 13232 ft | 326 kts | 348° |
| 2026-05-04 12:50 | 53.46294 | 10.71509 | 12844 ft | 323 kts | 348° |
| 2026-05-04 12:51 | 53.48522 | 10.71050 | 12457 ft | 321 kts | 348° |
| 2026-05-04 12:51 | 53.50729 | 10.70591 | 12073 ft | 318 kts | 348° |
| 2026-05-04 12:51 | 53.52921 | 10.70128 | 11698 ft | 316 kts | 348° |
| 2026-05-04 12:51 | 53.55100 | 10.69662 | 11326 ft | 313 kts | 348° |
| 2026-05-04 12:52 | 53.57251 | 10.69198 | 10956 ft | 311 kts | 348° |
| 2026-05-04 12:52 | 53.59383 | 10.68734 | 10586 ft | 305 kts | 348° |
| 2026-05-04 12:52 | 53.61466 | 10.68278 | 10228 ft | 299 kts | 348° |
| 2026-05-04 12:52 | 53.63511 | 10.67830 | 9864 ft | 293 kts | 348° |
| 2026-05-04 12:53 | 53.64832 | 10.67473 | 9604 ft | 287 kts | 342° |
| 2026-05-04 12:53 | 53.66697 | 10.66405 | 9212 ft | 279 kts | 335° |
| 2026-05-04 12:53 | 53.68521 | 10.65216 | 8815 ft | 274 kts | 334° |
| 2026-05-04 12:53 | 53.70277 | 10.64059 | 8425 ft | 269 kts | 335° |
| 2026-05-04 12:54 | 53.72003 | 10.62914 | 8047 ft | 264 kts | 334° |
| 2026-05-04 12:54 | 53.73697 | 10.61787 | 7670 ft | 258 kts | 334° |
| 2026-05-04 12:54 | 53.75354 | 10.60683 | 7299 ft | 254 kts | 335° |
| 2026-05-04 12:54 | 53.76984 | 10.59593 | 6929 ft | 249 kts | 334° |
| 2026-05-04 12:55 | 53.78584 | 10.58519 | 6563 ft | 245 kts | 334° |
| 2026-05-04 12:55 | 53.80160 | 10.57467 | 6187 ft | 241 kts | 334° |
| 2026-05-04 12:55 | 53.81712 | 10.56418 | 5800 ft | 238 kts | 332° |
| 2026-05-04 12:55 | 53.82964 | 10.54729 | 5417 ft | 228 kts | 301° |
| 2026-05-04 12:56 | 53.83445 | 10.52264 | 5039 ft | 219 kts | 271° |
| 2026-05-04 12:56 | 53.83382 | 10.49710 | 4768 ft | 215 kts | 265° |
| 2026-05-04 12:56 | 53.83246 | 10.47200 | 4505 ft | 213 kts | 264° |
| 2026-05-04 12:56 | 53.83102 | 10.44723 | 4246 ft | 210 kts | 265° |
| 2026-05-04 12:57 | 53.82951 | 10.42280 | 4012 ft | 207 kts | 264° |
| 2026-05-04 12:57 | 53.82763 | 10.39888 | 3805 ft | 203 kts | 256° |
| 2026-05-04 12:57 | 53.82121 | 10.37790 | 3604 ft | 202 kts | 234° |
| 2026-05-04 12:57 | 53.81231 | 10.35968 | 3397 ft | 199 kts | 233° |
| 2026-05-04 12:58 | 53.80353 | 10.34170 | 3196 ft | 196 kts | 232° |
| 2026-05-04 12:58 | 53.79496 | 10.32409 | 3051 ft | 191 kts | 232° |
| 2026-05-04 12:58 | 53.78653 | 10.30678 | 2995 ft | 190 kts | 233° |
| 2026-05-04 12:58 | 53.77812 | 10.28952 | 3000 ft | 190 kts | 232° |
| 2026-05-04 12:59 | 53.76981 | 10.27247 | 2997 ft | 190 kts | 233° |
| 2026-05-04 12:59 | 53.76139 | 10.25523 | 2998 ft | 190 kts | 233° |
| 2026-05-04 12:59 | 53.75308 | 10.23822 | 2993 ft | 185 kts | 233° |
| 2026-05-04 12:59 | 53.74495 | 10.22158 | 3000 ft | 182 kts | 233° |
| 2026-05-04 13:00 | 53.73692 | 10.20515 | 3003 ft | 181 kts | 233° |
| 2026-05-04 13:00 | 53.72887 | 10.18870 | 2893 ft | 181 kts | 233° |
| 2026-05-04 13:00 | 53.72095 | 10.17253 | 2723 ft | 176 kts | 233° |
| 2026-05-04 13:00 | 53.71317 | 10.15665 | 2465 ft | 175 kts | 232° |
| 2026-05-04 13:01 | 53.70564 | 10.14130 | 2220 ft | 166 kts | 233° |
| 2026-05-04 13:01 | 53.69851 | 10.12679 | 2022 ft | 152 kts | 233° |
| 2026-05-04 13:01 | 53.69213 | 10.11380 | 1818 ft | 136 kts | 234° |
| 2026-05-04 13:01 | 53.68621 | 10.10174 | 1646 ft | 130 kts | 233° |
| 2026-05-04 13:02 | 53.68045 | 10.09000 | 1470 ft | 130 kts | 234° |
| 2026-05-04 13:02 | 53.67462 | 10.07812 | 1287 ft | 132 kts | 234° |
| 2026-05-04 13:02 | 53.66883 | 10.06635 | 1120 ft | 128 kts | 233° |
| 2026-05-04 13:02 | 53.66310 | 10.05469 | 940 ft | 130 kts | 235° |
| 2026-05-04 13:03 | 53.65728 | 10.04284 | 755 ft | 133 kts | 234° |
| 2026-05-04 13:03 | 53.65129 | 10.03068 | 576 ft | 135 kts | 234° |
| 2026-05-04 13:03 | 53.64531 | 10.01855 | 386 ft | 134 kts | 234° |
| 2026-05-04 13:03 | 53.63935 | 10.00634 | 213 ft | 136 kts | 234° |
| 2026-05-04 13:04 | 53.63327 | 9.99434 | 52 ft | 130 kts | 234° |
| 2026-05-04 13:04 | 53.62848 | 9.98439 | 44 ft | 86 kts | 230° |
| 2026-05-04 13:04 | 53.62577 | 9.97886 | 41 ft | 34 kts | 231° |
| 2026-05-04 13:04 | 53.62491 | 9.97765 | 41 ft | 12 kts | 179° |
| 2026-05-04 13:05 | 53.62434 | 9.97846 | 44 ft | 9 kts | 120° |
| 2026-05-04 13:05 | 53.62428 | 9.97932 | 46 ft | 6 kts | 78° |
| 2026-05-04 13:05 | 53.62440 | 9.98002 | 44 ft | 7 kts | 70° |
| 2026-05-04 13:05 | 53.62462 | 9.98087 | 47 ft | 9 kts | 62° |
| 2026-05-04 13:06 | 53.62508 | 9.98183 | 47 ft | 12 kts | 49° |
| 2026-05-04 13:06 | 53.62565 | 9.98298 | 47 ft | 14 kts | 50° |
| 2026-05-04 13:06 | 53.62629 | 9.98426 | 47 ft | 15 kts | 50° |
| 2026-05-04 13:06 | 53.62697 | 9.98564 | 47 ft | 16 kts | 51° |
| 2026-05-04 13:07 | 53.62770 | 9.98710 | 47 ft | 17 kts | 49° |
| 2026-05-04 13:07 | 53.62847 | 9.98868 | 47 ft | 18 kts | 50° |
| 2026-05-04 13:07 | 53.62928 | 9.99031 | 47 ft | 19 kts | 50° |
| 2026-05-04 13:07 | 53.63014 | 9.99207 | 47 ft | 19 kts | 51° |
| 2026-05-04 13:08 | 53.63089 | 9.99377 | 47 ft | 17 kts | 55° |
| 2026-05-04 13:08 | 53.63159 | 9.99544 | 46 ft | 18 kts | 51° |
| 2026-05-04 13:08 | 53.63222 | 9.99672 | 48 ft | 11 kts | 57° |
| 2026-05-04 13:08 | 53.63196 | 9.99783 | 48 ft | 12 kts | 150° |
| 2026-05-04 13:09 | 53.63124 | 9.99853 | 47 ft | 12 kts | 137° |
| 2026-05-04 13:09 | 53.63140 | 9.99956 | 48 ft | 8 kts | 49° |
| 2026-05-04 13:09 | 53.63174 | 10.00014 | 48 ft | 6 kts | 25° |
| 2026-05-04 13:09 | 53.63194 | 9.99999 | 48 ft | 0 kts | 322° |
| 2026-05-04 13:10 | 53.63205 | 9.99981 | 47 ft | 4 kts | 317° |
| 2026-05-04 13:10 | 53.63215 | 9.99967 | 48 ft | 0 kts | 319° |